Time;durP1;ratioP1;P1;durP2;ratioP2;P2;SDS_P1;SDS_P2;PMS_P1;PMS_P2;Temp;Humidity;BMP_temperature;BMP_pressure;BME280_temperature;BME280_humidity;BME280_pressure;Samples;Min_cycle;Max_cycle;Signal;HPM_P1;HPM_P2
2023/05/03 00:00:07;;;;;;;1999.90;999.90;;;26.90;89.80;;;;;;5044878;28;20032;-73
2023/05/03 00:02:38;;;;;;;1999.90;999.90;;;26.70;88.90;;;;;;5053632;28;20060;-75
2023/05/03 00:05:16;;;;;;;1999.90;999.90;;;26.50;90.20;;;;;;5058048;28;20590;-73
2023/05/03 00:07:49;;;;;;;1999.90;999.90;;;26.70;89.80;;;;;;5053908;28;20094;-73
2023/05/03 00:10:19;;;;;;;1999.90;999.90;;;26.90;88.90;;;;;;5043687;28;20041;-74
2023/05/03 00:12:47;;;;;;;1999.90;999.90;;;26.80;89.10;;;;;;5053485;28;20041;-73
2023/05/03 00:15:14;;;;;;;1999.90;999.90;;;27.40;87.40;;;;;;5047141;28;20028;-74
2023/05/03 00:17:42;;;;;;;1999.90;999.90;;;27.80;87.30;;;;;;5052762;28;20032;-75
2023/05/03 00:20:10;;;;;;;1999.90;999.90;;;28.30;82.00;;;;;;5051802;28;20158;-74
2023/05/03 00:22:38;;;;;;;1999.90;999.90;;;28.70;82.50;;;;;;5055819;28;20475;-72
2023/05/03 00:25:06;;;;;;;1999.90;999.90;;;28.90;80.60;;;;;;5052245;28;20079;-74
2023/05/03 00:27:33;;;;;;;1999.90;999.90;;;29.00;78.90;;;;;;5056847;28;20028;-73
2023/05/03 00:30:01;;;;;;;1999.90;999.90;;;29.10;77.20;;;;;;5050436;28;20044;-73
2023/05/03 00:32:28;;;;;;;1999.90;999.90;;;28.80;77.40;;;;;;5054469;28;20021;-73
2023/05/03 00:34:56;;;;;;;1999.90;999.90;;;28.20;76.70;;;;;;5057897;28;20376;-74
2023/05/03 00:37:24;;;;;;;1999.90;999.90;;;27.80;78.00;;;;;;5055106;28;20029;-75
2023/05/03 00:39:52;;;;;;;1999.90;999.90;;;27.60;76.70;;;;;;5049705;28;20051;-74
2023/05/03 00:42:19;;;;;;;1999.90;999.90;;;27.40;78.20;;;;;;5053476;28;20380;-74
2023/05/03 00:44:47;;;;;;;1999.90;999.90;;;28.20;77.50;;;;;;5042783;28;20033;-73
2023/05/03 00:47:16;;;;;;;1999.90;999.90;;;28.80;76.80;;;;;;5053487;28;20032;-73
2023/05/03 00:49:44;;;;;;;1999.90;999.90;;;29.20;76.30;;;;;;5046037;28;20065;-75
2023/05/03 00:52:11;;;;;;;1999.90;999.90;;;29.60;75.60;;;;;;5049876;28;20022;-73
2023/05/03 00:54:39;;;;;;;1999.90;999.90;;;29.80;74.00;;;;;;5044298;28;20028;-74
2023/05/03 00:57:06;;;;;;;1999.90;999.90;;;29.90;74.30;;;;;;5043242;28;20022;-72
2023/05/03 00:59:34;;;;;;;1999.90;999.90;;;30.30;74.00;;;;;;5043796;28;20025;-74
2023/05/03 01:02:01;;;;;;;1999.90;999.90;;;30.70;74.10;;;;;;5049830;28;20025;-73
2023/05/03 01:04:29;;;;;;;1999.90;999.90;;;30.10;73.20;;;;;;5048311;28;20098;-72
2023/05/03 01:07:17;;;;;;;1999.90;999.90;;;29.90;72.90;;;;;;5052342;28;20039;-71
2023/05/03 01:10:03;;;;;;;1999.90;999.90;;;30.00;73.00;;;;;;5053725;28;20045;-72
2023/05/03 01:13:03;;;;;;;1999.90;999.90;;;29.80;73.70;;;;;;5048992;28;20032;-71
2023/05/03 01:16:08;;;;;;;1999.90;999.90;;;29.40;74.10;;;;;;5053499;28;20460;-71
2023/05/03 01:18:40;;;;;;;1999.90;999.90;;;29.40;73.70;;;;;;5034848;28;20037;-71
2023/05/03 01:21:10;;;;;;;1999.90;999.90;;;29.00;72.50;;;;;;5050053;28;20037;-71
2023/05/03 01:23:43;;;;;;;1999.90;999.90;;;28.80;73.90;;;;;;5047859;28;20052;-70
2023/05/03 01:26:30;;;;;;;1999.90;999.90;;;29.30;73.20;;;;;;5053651;28;20021;-72
2023/05/03 01:28:59;;;;;;;1999.90;999.90;;;29.20;73.60;;;;;;5052338;28;20512;-72
2023/05/03 01:31:29;;;;;;;1999.90;999.90;;;29.00;73.50;;;;;;5052876;28;20066;-70
2023/05/03 01:34:16;;;;;;;1999.90;999.90;;;29.00;72.50;;;;;;5058327;28;20033;-71
2023/05/03 01:36:45;;;;;;;1999.90;999.90;;;28.40;71.60;;;;;;5055521;28;20029;-71
2023/05/03 01:39:37;;;;;;;1999.90;999.90;;;27.50;72.60;;;;;;5052754;28;20391;-70
2023/05/03 01:42:06;;;;;;;1999.90;999.90;;;26.60;73.00;;;;;;5052482;28;20087;-71
2023/05/03 01:44:34;;;;;;;1999.90;999.90;;;26.80;73.50;;;;;;5048190;28;20784;-71
2023/05/03 01:47:02;;;;;;;1999.90;999.90;;;26.80;73.40;;;;;;5054418;28;20029;-70
2023/05/03 01:49:29;;;;;;;1999.90;999.90;;;27.00;73.90;;;;;;5049053;28;20025;-71
2023/05/03 01:51:57;;;;;;;1999.90;999.90;;;27.40;72.90;;;;;;5051416;28;20036;-70
2023/05/03 01:54:24;;;;;;;1999.90;999.90;;;26.90;72.40;;;;;;5044404;28;20655;-70
2023/05/03 01:56:51;;;;;;;1999.90;999.90;;;26.60;72.60;;;;;;5056253;28;20060;-70
2023/05/03 01:59:19;;;;;;;1999.90;999.90;;;26.20;72.70;;;;;;5046480;28;20383;-69
2023/05/03 02:01:46;;;;;;;1999.90;999.90;;;25.90;73.60;;;;;;5052472;28;20112;-70
2023/05/03 02:04:13;;;;;;;1999.90;999.90;;;25.80;73.70;;;;;;5043423;28;20047;-70
2023/05/03 02:06:41;;;;;;;1999.90;999.90;;;25.90;73.90;;;;;;5043106;28;20056;-69
2023/05/03 02:09:08;;;;;;;1999.90;999.90;;;26.50;73.40;;;;;;5044232;28;20467;-69
2023/05/03 02:11:35;;;;;;;1999.90;999.90;;;26.50;71.90;;;;;;5032534;28;20057;-69
2023/05/03 02:14:02;;;;;;;1999.90;999.90;;;26.60;72.40;;;;;;5045858;28;20033;-69
2023/05/03 02:16:30;;;;;;;1999.90;999.90;;;26.50;71.90;;;;;;5043252;28;20029;-70
2023/05/03 02:18:58;;;;;;;1999.90;999.90;;;26.30;71.80;;;;;;5039062;28;20038;-71
2023/05/03 02:21:26;;;;;;;1999.90;999.90;;;26.30;71.40;;;;;;5038910;28;20476;-71
2023/05/03 02:23:53;;;;;;;1999.90;999.90;;;26.20;71.80;;;;;;5048755;28;20039;-69
2023/05/03 02:26:20;;;;;;;1999.90;999.90;;;26.10;71.80;;;;;;5037502;28;20016;-69
2023/05/03 02:28:48;;;;;;;1999.90;999.90;;;26.20;72.20;;;;;;5033280;28;20396;-71
2023/05/03 02:31:15;;;;;;;1999.90;999.90;;;26.20;71.00;;;;;;5048806;28;20467;-71
2023/05/03 02:33:43;;;;;;;1999.90;999.90;;;26.60;72.30;;;;;;5047610;28;20025;-68
2023/05/03 02:36:10;;;;;;;1999.90;999.90;;;26.30;71.20;;;;;;5045474;28;20054;-70
2023/05/03 02:38:37;;;;;;;1999.90;999.90;;;26.40;71.90;;;;;;5049022;28;20039;-71
2023/05/03 02:41:05;;;;;;;1999.90;999.90;;;26.80;71.50;;;;;;5039979;28;20039;-69
2023/05/03 02:43:32;;;;;;;1999.90;999.90;;;26.70;70.70;;;;;;5044869;28;20016;-70
2023/05/03 02:45:59;;;;;;;1999.90;999.90;;;26.90;70.00;;;;;;5043821;28;20036;-68
2023/05/03 02:48:27;;;;;;;1999.90;999.90;;;26.70;69.00;;;;;;5055779;28;20075;-70
2023/05/03 02:50:54;;;;;;;1999.90;999.90;;;26.90;69.60;;;;;;5045437;28;20527;-70
2023/05/03 02:53:22;;;;;;;1999.90;999.90;;;26.30;67.80;;;;;;5047790;28;20462;-70
2023/05/03 02:55:50;;;;;;;1999.90;999.90;;;25.90;66.90;;;;;;5044879;28;20364;-70
2023/05/03 02:58:17;;;;;;;1999.90;999.90;;;25.80;68.00;;;;;;5043589;28;20118;-70
2023/05/03 03:00:45;;;;;;;1999.90;999.90;;;26.00;68.90;;;;;;5047827;28;20059;-71
2023/05/03 03:03:12;;;;;;;1999.90;999.90;;;26.20;68.10;;;;;;5064452;28;20328;-71
2023/05/03 03:05:39;;;;;;;1999.90;999.90;;;26.20;67.70;;;;;;5055937;28;20033;-71
2023/05/03 03:08:07;;;;;;;1999.90;999.90;;;25.90;67.10;;;;;;5056849;28;20510;-71
2023/05/03 03:10:35;;;;;;;1999.90;999.90;;;26.10;68.20;;;;;;5054959;28;20509;-70
2023/05/03 03:13:02;;;;;;;1999.90;999.90;;;26.60;68.40;;;;;;5054405;28;20433;-70
2023/05/03 03:15:29;;;;;;;1999.90;999.90;;;26.90;67.20;;;;;;5050787;28;20029;-71
2023/05/03 03:17:57;;;;;;;1999.90;999.90;;;26.70;66.80;;;;;;5054591;28;20060;-71
2023/05/03 03:20:24;;;;;;;1999.90;999.90;;;26.50;67.40;;;;;;5047246;28;20021;-70
2023/05/03 03:22:52;;;;;;;1999.90;999.90;;;26.50;67.70;;;;;;5051283;28;20048;-71
2023/05/03 03:25:20;;;;;;;1999.90;999.90;;;26.30;66.70;;;;;;5055072;28;20063;-71
2023/05/03 03:27:47;;;;;;;1999.90;999.90;;;26.00;66.90;;;;;;5059674;28;20057;-71
2023/05/03 03:30:15;;;;;;;1999.90;999.90;;;25.80;66.20;;;;;;5051643;28;20040;-71
2023/05/03 03:32:42;;;;;;;1999.90;999.90;;;25.80;66.80;;;;;;5059504;28;20028;-70
2023/05/03 03:35:10;;;;;;;1999.90;999.90;;;25.90;66.40;;;;;;5055780;28;20086;-71
2023/05/03 03:37:38;;;;;;;1999.90;999.90;;;26.10;66.30;;;;;;5056797;28;20026;-69
2023/05/03 03:40:07;;;;;;;1999.90;999.90;;;25.90;65.00;;;;;;5054759;28;20047;-70
2023/05/03 03:42:34;;;;;;;1999.90;999.90;;;25.20;66.60;;;;;;5059240;28;20036;-70
2023/05/03 03:45:01;;;;;;;1999.90;999.90;;;24.80;67.50;;;;;;5045792;28;20024;-70
2023/05/03 03:47:28;;;;;;;1999.90;999.90;;;24.70;68.50;;;;;;5056048;28;20040;-70
2023/05/03 03:49:56;;;;;;;1999.90;999.90;;;24.70;67.50;;;;;;5046262;28;20459;-71
2023/05/03 03:52:24;;;;;;;1999.90;999.90;;;24.50;67.40;;;;;;5054614;28;20029;-72
2023/05/03 03:54:52;;;;;;;1999.90;999.90;;;24.50;67.90;;;;;;5052231;28;20024;-69
2023/05/03 03:57:19;;;;;;;1999.90;999.90;;;24.50;68.40;;;;;;5048555;28;20029;-70
2023/05/03 03:59:47;;;;;;;1999.90;999.90;;;24.70;68.20;;;;;;5032253;28;20247;-70
2023/05/03 04:02:14;;;;;;;1999.90;999.90;;;24.80;67.40;;;;;;5039122;28;20029;-70
2023/05/03 04:04:42;;;;;;;1999.90;999.90;;;25.00;67.70;;;;;;5043255;28;20082;-69
2023/05/03 04:07:10;;;;;;;1999.90;999.90;;;25.20;67.10;;;;;;5044946;28;20158;-70
2023/05/03 04:09:38;;;;;;;1999.90;999.90;;;25.10;66.90;;;;;;5039199;28;20045;-69
2023/05/03 04:12:05;;;;;;;1999.90;999.90;;;25.00;66.70;;;;;;5068779;28;20040;-71
2023/05/03 04:14:33;;;;;;;1999.90;999.90;;;24.90;67.40;;;;;;5046887;28;20100;-70
2023/05/03 04:17:00;;;;;;;1999.90;999.90;;;24.90;67.10;;;;;;5044843;28;20052;-73
2023/05/03 04:19:28;;;;;;;1999.90;999.90;;;24.80;67.20;;;;;;5036427;28;20028;-70
2023/05/03 04:21:55;;;;;;;1999.90;999.90;;;24.60;67.60;;;;;;5038938;28;20837;-71
2023/05/03 04:24:22;;;;;;;1999.90;999.90;;;24.50;67.80;;;;;;5049098;28;20024;-72
2023/05/03 04:26:50;;;;;;;1999.90;999.90;;;24.40;68.10;;;;;;5048998;28;20029;-71
2023/05/03 04:29:18;;;;;;;1999.90;999.90;;;24.30;68.30;;;;;;5040045;28;20408;-69
2023/05/03 04:31:46;;;;;;;1999.90;999.90;;;24.20;68.10;;;;;;5045846;28;20123;-68
2023/05/03 04:34:14;;;;;;;1999.90;999.90;;;23.90;68.60;;;;;;5041688;28;20029;-69
2023/05/03 04:36:44;;;;;;;1999.90;999.90;;;23.80;69.40;;;;;;5052848;28;20060;-69
2023/05/03 04:39:11;;;;;;;1999.90;999.90;;;23.70;69.50;;;;;;5051243;28;20480;-69
2023/05/03 04:41:41;;;;;;;1999.90;999.90;;;23.60;70.30;;;;;;5054587;28;20025;-68
2023/05/03 04:44:08;;;;;;;1999.90;999.90;;;23.60;70.50;;;;;;5039355;28;20025;-70
2023/05/03 04:46:35;;;;;;;1999.90;999.90;;;23.60;70.90;;;;;;5057058;28;20024;-69
2023/05/03 04:49:03;;;;;;;1999.90;999.90;;;23.60;71.20;;;;;;5049547;28;20225;-70
2023/05/03 04:51:30;;;;;;;1999.90;999.90;;;23.50;70.90;;;;;;5061071;28;20077;-69
2023/05/03 04:53:58;;;;;;;1999.90;999.90;;;23.40;71.80;;;;;;5048796;28;20033;-69
2023/05/03 04:56:26;;;;;;;1999.90;999.90;;;23.30;72.10;;;;;;5059340;28;20025;-70
2023/05/03 04:58:54;;;;;;;1999.90;999.90;;;23.30;72.50;;;;;;5054967;28;20403;-70
2023/05/03 05:01:25;;;;;;;1999.90;999.90;;;23.30;73.00;;;;;;5052768;28;20157;-69
2023/05/03 05:03:53;;;;;;;1999.90;999.90;;;23.40;73.30;;;;;;5048893;28;20128;-69
2023/05/03 05:06:20;;;;;;;1999.90;999.90;;;23.30;73.20;;;;;;5056606;28;20029;-69
2023/05/03 05:08:47;;;;;;;1999.90;999.90;;;23.30;73.30;;;;;;5054020;28;20501;-70
2023/05/03 05:11:15;;;;;;;1999.90;999.90;;;23.20;73.50;;;;;;5049826;28;20040;-70
2023/05/03 05:13:42;;;;;;;1999.90;999.90;;;23.20;74.00;;;;;;5052982;28;20106;-69
2023/05/03 05:16:10;;;;;;;1999.90;999.90;;;23.20;73.60;;;;;;5040755;28;20111;-69
2023/05/03 05:18:37;;;;;;;1999.90;999.90;;;23.10;74.20;;;;;;5043854;28;20037;-69
2023/05/03 05:21:04;;;;;;;1999.90;999.90;;;23.10;74.40;;;;;;5050114;28;20056;-69
2023/05/03 05:23:32;;;;;;;1999.90;999.90;;;23.10;74.30;;;;;;5047948;28;20025;-70
2023/05/03 05:25:59;;;;;;;1999.90;999.90;;;23.20;74.50;;;;;;5050484;28;20033;-69
2023/05/03 05:28:28;;;;;;;1999.90;999.90;;;23.20;73.70;;;;;;5056446;28;20033;-70
2023/05/03 05:30:55;;;;;;;1999.90;999.90;;;23.20;74.00;;;;;;5048635;28;20559;-70
2023/05/03 05:33:23;;;;;;;1999.90;999.90;;;23.10;73.10;;;;;;5050239;28;20025;-70
2023/05/03 05:35:50;;;;;;;1999.90;999.90;;;23.10;74.30;;;;;;5042137;28;20029;-71
2023/05/03 05:38:17;;;;;;;1999.90;999.90;;;23.10;73.70;;;;;;5048902;28;20039;-70
2023/05/03 05:40:45;;;;;;;1999.90;999.90;;;23.10;74.10;;;;;;5047853;28;20037;-69
2023/05/03 05:43:12;;;;;;;1999.90;999.90;;;23.10;74.50;;;;;;5050873;28;20017;-70
2023/05/03 05:45:39;;;;;;;1999.90;999.90;;;23.10;74.50;;;;;;5046246;28;20033;-69
2023/05/03 05:48:08;;;;;;;1999.90;999.90;;;23.00;74.20;;;;;;5041508;28;20040;-70
2023/05/03 05:50:35;;;;;;;1999.90;999.90;;;23.00;74.50;;;;;;5045027;28;20108;-69
2023/05/03 05:53:03;;;;;;;1999.90;999.90;;;23.00;75.00;;;;;;5055082;28;20029;-70
2023/05/03 05:55:30;;;;;;;1999.90;999.90;;;23.00;74.80;;;;;;5043110;28;20029;-70
2023/05/03 05:57:57;;;;;;;1999.90;999.90;;;23.10;75.00;;;;;;5047183;28;20083;-71
2023/05/03 06:00:25;;;;;;;1999.90;999.90;;;23.00;74.60;;;;;;5050107;28;20575;-70
2023/05/03 06:02:52;;;;;;;1999.90;999.90;;;22.90;74.90;;;;;;5044335;28;20388;-70
2023/05/03 06:05:20;;;;;;;1999.90;999.90;;;22.90;75.00;;;;;;5048801;28;20056;-70
2023/05/03 06:07:48;;;;;;;1999.90;999.90;;;22.80;74.60;;;;;;5051609;28;20373;-69
2023/05/03 06:10:16;;;;;;;1999.90;999.90;;;22.70;74.90;;;;;;5041694;28;20139;-69
2023/05/03 06:12:43;;;;;;;1999.90;999.90;;;22.60;75.30;;;;;;5040324;28;20084;-69
2023/05/03 06:15:11;;;;;;;1999.90;999.90;;;22.50;75.80;;;;;;5047034;28;20039;-71
2023/05/03 06:17:39;;;;;;;1999.90;999.90;;;22.60;75.80;;;;;;5052849;28;20040;-69
2023/05/03 06:20:15;;;;;;;1999.90;999.90;;;22.50;76.10;;;;;;5049885;28;20480;-69
2023/05/03 06:22:42;;;;;;;1999.90;999.90;;;22.40;76.10;;;;;;5048543;28;20052;-71
2023/05/03 06:25:13;;;;;;;1999.90;999.90;;;22.40;76.80;;;;;;5048586;28;20025;-71
2023/05/03 06:27:40;;;;;;;1999.90;999.90;;;22.40;77.00;;;;;;5049421;28;20043;-71
2023/05/03 06:30:09;;;;;;;1999.90;999.90;;;22.40;77.10;;;;;;5052254;28;20041;-70
2023/05/03 06:32:39;;;;;;;1999.90;999.90;;;22.30;77.50;;;;;;5062498;28;20496;-70
2023/05/03 06:35:08;;;;;;;1999.90;999.90;;;22.20;77.60;;;;;;5053055;28;20095;-70
2023/05/03 06:37:35;;;;;;;1999.90;999.90;;;22.00;77.80;;;;;;5056017;28;20028;-69
2023/05/03 06:40:04;;;;;;;1999.90;999.90;;;21.90;77.90;;;;;;5050642;28;20131;-71
2023/05/03 06:42:31;;;;;;;1999.90;999.90;;;21.80;78.50;;;;;;5052445;28;20053;-70
2023/05/03 06:44:58;;;;;;;1999.90;999.90;;;21.70;78.70;;;;;;5053209;28;20036;-69
2023/05/03 06:47:26;;;;;;;1999.90;999.90;;;21.60;78.60;;;;;;5059245;28;20507;-71
2023/05/03 06:49:53;;;;;;;1999.90;999.90;;;21.50;79.10;;;;;;5055631;28;20031;-69
2023/05/03 06:52:21;;;;;;;1999.90;999.90;;;21.40;79.30;;;;;;5055264;28;20022;-70
2023/05/03 06:54:48;;;;;;;1999.90;999.90;;;21.30;79.20;;;;;;5056044;28;20036;-71
2023/05/03 06:57:15;;;;;;;1999.90;999.90;;;21.20;79.30;;;;;;5051741;28;20044;-69
2023/05/03 06:59:43;;;;;;;1999.90;999.90;;;21.10;79.60;;;;;;5050923;28;20372;-71
2023/05/03 07:02:10;;;;;;;1999.90;999.90;;;21.10;79.60;;;;;;5054970;28;20025;-70
2023/05/03 07:04:38;;;;;;;1999.90;999.90;;;21.00;79.70;;;;;;5050195;28;20479;-71
2023/05/03 07:07:05;;;;;;;1999.90;999.90;;;21.00;80.10;;;;;;5056831;28;20107;-69
2023/05/03 07:09:33;;;;;;;1999.90;999.90;;;20.90;80.20;;;;;;5045112;28;20036;-71
2023/05/03 07:12:01;;;;;;;1999.90;999.90;;;20.80;80.40;;;;;;5049787;28;20043;-71
2023/05/03 07:14:30;;;;;;;1999.90;999.90;;;20.80;80.60;;;;;;5047099;28;20391;-71
2023/05/03 07:16:57;;;;;;;1999.90;999.90;;;20.70;80.60;;;;;;5051436;28;20109;-70
2023/05/03 07:19:25;;;;;;;1999.90;999.90;;;20.70;80.70;;;;;;5047289;28;20082;-69
2023/05/03 07:21:52;;;;;;;1999.90;999.90;;;20.70;81.10;;;;;;5051047;28;20021;-71
2023/05/03 07:24:19;;;;;;;1999.90;999.90;;;20.70;80.80;;;;;;5048132;28;20025;-68
2023/05/03 07:26:47;;;;;;;1999.90;999.90;;;20.60;81.20;;;;;;5042074;28;20068;-71
2023/05/03 07:29:14;;;;;;;1999.90;999.90;;;20.60;81.30;;;;;;5043970;28;20050;-71
2023/05/03 07:31:43;;;;;;;1999.90;999.90;;;20.60;81.50;;;;;;5045218;28;20372;-70
2023/05/03 07:34:11;;;;;;;1999.90;999.90;;;20.60;81.70;;;;;;5044914;28;20108;-71
2023/05/03 07:36:39;;;;;;;1999.90;999.90;;;20.50;82.00;;;;;;5051049;28;20495;-71
2023/05/03 07:39:07;;;;;;;1999.90;999.90;;;20.50;82.20;;;;;;5045111;28;20491;-70
2023/05/03 07:41:34;;;;;;;1999.90;999.90;;;20.50;82.50;;;;;;5043378;28;20033;-69
2023/05/03 07:44:02;;;;;;;1999.90;999.90;;;20.40;82.70;;;;;;5059504;28;20029;-69
2023/05/03 07:46:33;;;;;;;1999.90;999.90;;;20.40;82.70;;;;;;5049202;28;20025;-70
2023/05/03 07:49:05;;;;;;;1999.90;999.90;;;20.40;82.80;;;;;;5045893;28;20033;-70
2023/05/03 07:51:38;;;;;;;1999.90;999.90;;;20.40;83.00;;;;;;5043119;28;20029;-70
2023/05/03 07:54:06;;;;;;;1999.90;999.90;;;20.30;83.90;;;;;;5054651;28;20112;-70
2023/05/03 07:56:33;;;;;;;1999.90;999.90;;;20.30;83.70;;;;;;5063663;28;20104;-70
2023/05/03 07:59:00;;;;;;;1999.90;999.90;;;20.30;83.80;;;;;;5051594;28;20025;-69
2023/05/03 08:01:28;;;;;;;1999.90;999.90;;;20.20;83.90;;;;;;5049910;28;20032;-70
2023/05/03 08:03:55;;;;;;;1999.90;999.90;;;20.30;83.90;;;;;;5053934;28;20406;-71
2023/05/03 08:06:23;;;;;;;1999.90;999.90;;;20.30;83.50;;;;;;5060380;28;20025;-70
2023/05/03 08:08:50;;;;;;;1999.90;999.90;;;20.30;83.60;;;;;;5056057;28;20051;-70
2023/05/03 08:11:17;;;;;;;1999.90;999.90;;;20.30;83.60;;;;;;5047346;28;20045;-69
2023/05/03 08:13:45;;;;;;;1999.90;999.90;;;20.30;83.60;;;;;;5040785;28;20029;-69
2023/05/03 08:16:15;;;;;;;1999.90;999.90;;;20.20;83.90;;;;;;5046720;28;20445;-71
2023/05/03 08:18:42;;;;;;;1999.90;999.90;;;20.10;83.90;;;;;;5038703;28;20041;-69
2023/05/03 08:21:11;;;;;;;1999.90;999.90;;;20.00;84.20;;;;;;5041182;28;20029;-69
2023/05/03 08:23:38;;;;;;;1999.90;999.90;;;19.90;84.90;;;;;;5039400;28;20075;-68
2023/05/03 08:26:08;;;;;;;1999.90;999.90;;;19.90;85.10;;;;;;5037319;28;20021;-69
2023/05/03 08:28:36;;;;;;;1999.90;999.90;;;19.80;85.10;;;;;;5043622;28;20116;-70
2023/05/03 08:31:04;;;;;;;1999.90;999.90;;;19.80;84.90;;;;;;5056381;28;20507;-70
2023/05/03 08:33:31;;;;;;;1999.90;999.90;;;19.80;85.20;;;;;;5033737;28;20139;-69
2023/05/03 08:35:58;;;;;;;1999.90;999.90;;;19.80;85.10;;;;;;5031850;28;20041;-70
2023/05/03 08:38:26;;;;;;;1999.90;999.90;;;19.80;85.50;;;;;;5031844;28;20059;-70
2023/05/03 08:40:56;;;;;;;1999.90;999.90;;;19.70;85.20;;;;;;5038540;28;20024;-69
2023/05/03 08:43:25;;;;;;;1999.90;999.90;;;19.70;85.00;;;;;;5031118;28;20022;-70
2023/05/03 08:45:52;;;;;;;1999.90;999.90;;;19.70;85.40;;;;;;5047563;28;20021;-68
2023/05/03 08:48:20;;;;;;;1999.90;999.90;;;19.70;85.20;;;;;;5063124;28;20044;-70
2023/05/03 08:50:50;;;;;;;1999.90;999.90;;;19.60;85.50;;;;;;5037419;28;20033;-68
2023/05/03 08:53:18;;;;;;;1999.90;999.90;;;19.60;85.60;;;;;;5054765;28;20036;-67
2023/05/03 08:55:45;;;;;;;1999.90;999.90;;;19.60;86.00;;;;;;5044482;28;20040;-68
2023/05/03 08:58:13;;;;;;;1999.90;999.90;;;19.60;85.60;;;;;;5050547;28;20021;-67
2023/05/03 09:00:43;;;;;;;1999.90;999.90;;;19.70;84.70;;;;;;5048997;28;20032;-68
2023/05/03 09:03:10;;;;;;;1999.90;999.90;;;19.70;85.00;;;;;;5055702;28;20398;-68
2023/05/03 09:05:39;;;;;;;1999.90;999.90;;;19.70;85.00;;;;;;5048509;28;20486;-67
2023/05/03 09:08:09;;;;;;;1999.90;999.90;;;19.60;84.90;;;;;;5046819;28;20033;-68
2023/05/03 09:10:41;;;;;;;1999.90;999.90;;;19.60;84.40;;;;;;5049942;28;20053;-69
2023/05/03 09:13:10;;;;;;;1999.90;999.90;;;19.60;84.50;;;;;;5065265;28;20093;-69
2023/05/03 09:15:38;;;;;;;1999.90;999.90;;;19.50;84.70;;;;;;5045510;28;20384;-69
2023/05/03 09:18:14;;;;;;;1999.90;999.90;;;19.50;85.00;;;;;;5050781;28;20495;-69
2023/05/03 09:20:49;;;;;;;1999.90;999.90;;;19.40;84.70;;;;;;5047448;28;20029;-68
2023/05/03 09:23:30;;;;;;;1999.90;999.90;;;19.30;84.80;;;;;;5050231;28;20033;-69
2023/05/03 09:25:59;;;;;;;1999.90;999.90;;;19.20;84.70;;;;;;5051997;28;20036;-69
2023/05/03 09:28:26;;;;;;;1999.90;999.90;;;19.10;84.30;;;;;;5053271;28;20446;-67
2023/05/03 09:31:13;;;;;;;1999.90;999.90;;;19.00;83.70;;;;;;5050279;28;20033;-70
2023/05/03 09:33:41;;;;;;;1999.90;999.90;;;18.90;83.70;;;;;;5060792;28;20107;-69
2023/05/03 09:36:09;;;;;;;1999.90;999.90;;;18.90;83.70;;;;;;5051528;28;20029;-69
2023/05/03 09:38:38;;;;;;;1999.90;999.90;;;18.90;83.80;;;;;;5056055;28;20115;-71
2023/05/03 09:41:05;;;;;;;1999.90;999.90;;;18.80;83.90;;;;;;5053675;28;20025;-68
2023/05/03 09:43:34;;;;;;;1999.90;999.90;;;18.80;84.10;;;;;;5061019;28;20119;-69
2023/05/03 09:46:14;;;;;;;1999.90;999.90;;;18.80;84.40;;;;;;5053664;28;20078;-69
2023/05/03 09:48:42;;;;;;;1999.90;999.90;;;18.70;84.60;;;;;;5055218;28;20427;-69
2023/05/03 09:51:11;;;;;;;1999.90;999.90;;;18.60;85.00;;;;;;5053156;28;20086;-69
2023/05/03 09:53:40;;;;;;;1999.90;999.90;;;18.50;84.80;;;;;;5052129;28;20071;-68
2023/05/03 09:56:12;;;;;;;1999.90;999.90;;;18.40;85.00;;;;;;5054482;28;20044;-70
2023/05/03 09:58:42;;;;;;;1999.90;999.90;;;18.30;84.70;;;;;;5055691;28;20032;-69
2023/05/03 10:01:10;;;;;;;1999.90;999.90;;;18.20;84.80;;;;;;5057430;28;20033;-68
2023/05/03 10:03:49;;;;;;;1999.90;999.90;;;18.10;85.10;;;;;;5055751;28;20047;-70
2023/05/03 10:06:25;;;;;;;1999.90;999.90;;;18.10;85.50;;;;;;5050046;28;20025;-69
2023/05/03 10:09:13;;;;;;;1999.90;999.90;;;18.00;85.20;;;;;;5053273;28;20446;-68
2023/05/03 10:11:47;;;;;;;1999.90;999.90;;;17.90;85.50;;;;;;5051710;28;20119;-70
2023/05/03 10:14:15;;;;;;;1999.90;999.90;;;17.80;85.70;;;;;;5052091;28;20028;-68
2023/05/03 10:16:50;;;;;;;1999.90;999.90;;;17.70;85.60;;;;;;5056108;28;20047;-68
2023/05/03 10:19:35;;;;;;;1999.90;999.90;;;17.70;86.00;;;;;;5051957;28;20032;-69
2023/05/03 10:22:10;;;;;;;1999.90;999.90;;;17.60;86.40;;;;;;5059283;28;20029;-68
2023/05/03 10:25:01;;;;;;;1999.90;999.90;;;17.60;86.50;;;;;;5054804;28;20400;-69
2023/05/03 10:28:07;;;;;;;1999.90;999.90;;;17.50;86.90;;;;;;5045451;28;20028;-69
2023/05/03 10:30:39;;;;;;;1999.90;999.90;;;17.40;87.30;;;;;;5048997;28;20045;-69
2023/05/03 10:33:12;;;;;;;1999.90;999.90;;;17.30;87.80;;;;;;5047959;28;20067;-69
2023/05/03 10:35:41;;;;;;;1999.90;999.90;;;17.20;88.00;;;;;;5047482;28;20111;-69
2023/05/03 10:38:21;;;;;;;1999.90;999.90;;;17.20;87.20;;;;;;5044254;28;20037;-69
2023/05/03 10:40:49;;;;;;;1999.90;999.90;;;17.20;86.90;;;;;;5049939;28;20039;-72
2023/05/03 10:43:35;;;;;;;1999.90;999.90;;;17.20;87.00;;;;;;5043157;28;20071;-70
2023/05/03 10:46:04;;;;;;;1999.90;999.90;;;17.20;86.70;;;;;;5041841;28;20033;-70
2023/05/03 10:48:33;;;;;;;1999.90;999.90;;;17.20;86.80;;;;;;5048801;28;20049;-70
2023/05/03 10:51:29;;;;;;;1999.90;999.90;;;17.10;86.70;;;;;;5043798;28;20021;-69
2023/05/03 10:53:56;;;;;;;1999.90;999.90;;;17.10;86.60;;;;;;5050758;28;20048;-68
2023/05/03 10:56:24;;;;;;;1999.90;999.90;;;17.00;86.30;;;;;;5057086;28;20028;-69
2023/05/03 10:58:55;;;;;;;1999.90;999.90;;;17.10;86.10;;;;;;5042072;28;20404;-70
2023/05/03 11:01:24;;;;;;;1999.90;999.90;;;17.00;86.30;;;;;;5032423;28;20026;-70
2023/05/03 11:04:13;;;;;;;1999.90;999.90;;;17.00;86.30;;;;;;5039849;28;20028;-70
2023/05/03 11:06:41;;;;;;;1999.90;999.90;;;17.00;86.60;;;;;;5048591;28;20021;-70
2023/05/03 11:09:12;;;;;;;1999.90;999.90;;;16.90;87.20;;;;;;5048979;28;20075;-71
2023/05/03 11:11:41;;;;;;;1999.90;999.90;;;16.90;87.20;;;;;;5053798;28;20098;-71
2023/05/03 11:14:09;;;;;;;1999.90;999.90;;;16.90;87.30;;;;;;5046973;28;20033;-70
2023/05/03 11:16:41;;;;;;;1999.90;999.90;;;16.80;87.00;;;;;;5049485;28;20406;-69
2023/05/03 11:19:08;;;;;;;1999.90;999.90;;;16.80;86.60;;;;;;5049333;28;20404;-72
2023/05/03 11:21:36;;;;;;;1999.90;999.90;;;16.80;86.50;;;;;;5046257;28;20029;-71
2023/05/03 11:24:03;;;;;;;1999.90;999.90;;;16.90;86.50;;;;;;5051479;28;20460;-69
2023/05/03 11:26:36;;;;;;;1999.90;999.90;;;16.90;86.90;;;;;;5046677;28;20458;-71
2023/05/03 11:29:04;;;;;;;1999.90;999.90;;;16.80;86.60;;;;;;5051618;28;20063;-70
2023/05/03 11:31:34;;;;;;;1999.90;999.90;;;16.90;86.70;;;;;;5054466;28;20587;-70
2023/05/03 11:34:01;;;;;;;1999.90;999.90;;;16.80;86.30;;;;;;5048464;28;20119;-70
2023/05/03 11:36:29;;;;;;;1999.90;999.90;;;16.90;86.10;;;;;;5054175;28;20067;-69
2023/05/03 11:38:57;;;;;;;1999.90;999.90;;;16.90;86.30;;;;;;5050654;28;20033;-69
2023/05/03 11:41:26;;;;;;;1999.90;999.90;;;16.90;86.60;;;;;;5052971;28;20076;-69
2023/05/03 11:43:53;;;;;;;1999.90;999.90;;;16.80;87.70;;;;;;5057912;28;20032;-68
2023/05/03 11:46:24;;;;;;;1999.90;999.90;;;16.80;88.10;;;;;;5058255;28;20037;-70
2023/05/03 11:48:51;;;;;;;1999.90;999.90;;;16.70;88.90;;;;;;5053188;28;20040;-68
2023/05/03 11:51:26;;;;;;;1999.90;999.90;;;16.60;89.90;;;;;;5053816;28;20112;-69
2023/05/03 11:53:55;;;;;;;1999.90;999.90;;;16.60;88.70;;;;;;5056702;28;20032;-69
2023/05/03 11:56:24;;;;;;;1999.90;999.90;;;16.60;88.50;;;;;;5053038;28;20025;-69
2023/05/03 11:58:56;;;;;;;1999.90;999.90;;;16.50;88.80;;;;;;5053390;28;20399;-70
2023/05/03 12:01:25;;;;;;;1999.90;999.90;;;16.40;89.90;;;;;;5051762;28;20031;-70
2023/05/03 12:03:57;;;;;;;1999.90;999.90;;;16.20;90.10;;;;;;5042837;28;20053;-68
2023/05/03 12:06:26;;;;;;;1999.90;999.90;;;16.10;90.50;;;;;;5045055;28;20111;-70
2023/05/03 12:08:54;;;;;;;1999.90;999.90;;;16.00;90.90;;;;;;5045458;28;20563;-68